Terminal Aerodrome Forecast
Issued by NWS Duluth, MN

Home | Current Version | Previous Version | Text Only | Print | Product List | Glossary On
Versions: 1 2 3 4 5 6 7 8 9 10 11 12 13 14 15 16 17 18 19
000
FTUS43 KDLH 012339
TAFDLH
TAF
KDLH 012339Z 0200/0224 26012KT P6SM SCT070
     FM020100 26007KT P6SM SCT070 SCT100
     FM020800 25004KT P6SM VCSH SCT060 BKN100
      TEMPO 0211/0215 -TSRA SCT030 BKN040CB OVC080
     FM021600 33008KT P6SM VCSH FEW025 BKN080
     FM021900 33010G18KT P6SM SCT035 BKN050=

USA.gov is the U.S. government's official web portal to all federal, state and local government web resources and services.